createdAt,value
2017-08-22T00:00:29.273Z,10.20
2017-08-22T00:02:56.832Z,5.83
2017-08-22T00:05:24.435Z,8.80
2017-08-22T00:07:52.386Z,11.53
2017-08-22T00:10:19.920Z,7.27
2017-08-22T00:12:48.714Z,6.77
2017-08-22T00:15:16.251Z,6.77
2017-08-22T00:17:43.818Z,7.10
2017-08-22T00:20:11.365Z,8.00
2017-08-22T00:22:38.966Z,9.73
2017-08-22T00:25:06.513Z,7.63
2017-08-22T00:27:34.100Z,6.97
2017-08-22T00:30:01.660Z,10.23
2017-08-22T00:32:29.198Z,8.83
2017-08-22T00:34:57.689Z,7.30
2017-08-22T00:37:25.273Z,7.10
2017-08-22T00:39:52.813Z,10.03
2017-08-22T00:42:20.352Z,10.40
2017-08-22T00:44:47.918Z,6.00
2017-08-22T00:47:15.746Z,8.60
2017-08-22T00:49:43.314Z,9.37
2017-08-22T00:52:10.854Z,9.90
2017-08-22T00:54:38.430Z,10.77
2017-08-22T00:57:05.973Z,10.00
2017-08-22T00:59:33.570Z,7.80
2017-08-22T01:02:01.110Z,7.67
2017-08-22T01:04:28.649Z,9.97
2017-08-22T01:06:56.219Z,5.87
2017-08-22T01:09:23.754Z,7.97
2017-08-22T01:11:51.325Z,10.50
2017-08-22T01:14:18.877Z,10.47
2017-08-22T01:16:46.457Z,8.33
2017-08-22T01:19:14.002Z,8.17
2017-08-22T01:21:41.559Z,8.43
2017-08-22T01:24:09.128Z,6.77
2017-08-22T01:26:36.706Z,6.63
2017-08-22T01:29:04.258Z,8.20
2017-08-22T01:31:31.854Z,10.63
2017-08-22T01:33:59.430Z,11.10
2017-08-22T01:36:26.976Z,9.37
2017-08-22T01:38:54.576Z,7.67
2017-08-22T01:41:22.122Z,7.70
2017-08-22T01:43:49.679Z,10.87
2017-08-22T01:46:17.261Z,5.90
2017-08-22T01:48:44.808Z,9.30
2017-08-22T01:51:12.394Z,10.37
2017-08-22T01:53:39.930Z,9.63
2017-08-22T01:56:07.468Z,10.50
2017-08-22T01:58:35.042Z,10.37
2017-08-22T02:01:02.574Z,5.47
2017-08-22T02:03:30.150Z,8.33
2017-08-22T02:05:57.691Z,8.43
2017-08-22T02:08:25.235Z,7.10
2017-08-22T02:10:52.818Z,5.80
2017-08-22T02:13:20.361Z,9.03
2017-08-22T02:15:47.894Z,9.10
2017-08-22T02:18:15.498Z,6.13
2017-08-22T02:20:43.039Z,8.73
2017-08-22T02:23:10.587Z,11.30
2017-08-22T02:25:38.166Z,8.80
2017-08-22T02:28:05.704Z,13.73
2017-08-22T02:30:33.284Z,7.17
2017-08-22T02:33:00.823Z,8.30
2017-08-22T02:35:28.379Z,10.17
2017-08-22T02:37:55.954Z,7.87
2017-08-22T02:40:23.510Z,9.30
2017-08-22T02:42:51.092Z,10.17
2017-08-22T02:45:18.682Z,16.33
2017-08-22T02:47:46.251Z,10.00
2017-08-22T02:50:13.790Z,9.90
2017-08-22T02:52:41.382Z,12.27
2017-08-22T02:55:08.919Z,9.00
2017-08-22T02:57:36.458Z,14.03
2017-08-22T03:00:04.047Z,10.80
2017-08-22T03:02:31.586Z,8.77
2017-08-22T03:05:00.865Z,11.93
2017-08-22T03:07:28.425Z,10.23
2017-08-22T03:09:56.734Z,13.50
2017-08-22T03:12:24.306Z,10.77
2017-08-22T03:14:51.842Z,11.83
2017-08-22T03:17:19.411Z,13.03
2017-08-22T03:19:46.968Z,9.90
2017-08-22T03:22:14.556Z,9.47
2017-08-22T03:24:42.101Z,11.40
2017-08-22T03:27:09.646Z,13.07
2017-08-22T03:29:37.222Z,12.60
2017-08-22T03:32:04.763Z,12.53
2017-08-22T03:34:32.337Z,18.93
2017-08-22T03:36:59.881Z,8.70
2017-08-22T03:39:28.150Z,12.60
2017-08-22T03:41:55.702Z,11.67
2017-08-22T03:44:23.245Z,13.13
2017-08-22T03:46:50.838Z,12.23
2017-08-22T03:49:18.419Z,12.20
2017-08-22T03:51:45.962Z,10.53
2017-08-22T03:54:13.546Z,13.80
2017-08-22T03:56:41.086Z,7.87
2017-08-22T03:59:08.630Z,12.10
2017-08-22T04:01:36.206Z,15.53
2017-08-22T04:04:03.768Z,10.53
2017-08-22T04:06:31.658Z,10.20
2017-08-22T04:09:00.093Z,9.60
2017-08-22T04:11:27.642Z,20.10
2017-08-22T04:13:55.234Z,10.07
2017-08-22T04:16:22.800Z,10.17
2017-08-22T04:18:50.396Z,10.40
2017-08-22T04:21:17.984Z,12.83
2017-08-22T04:23:45.890Z,11.77
2017-08-22T04:26:14.456Z,14.30
2017-08-22T04:28:41.995Z,10.43
2017-08-22T04:31:09.577Z,16.67
2017-08-22T04:33:37.121Z,13.17
2017-08-22T04:36:05.314Z,11.07
2017-08-22T04:38:32.908Z,9.40
2017-08-22T04:41:00.445Z,12.33
2017-08-22T04:43:28.001Z,11.60
2017-08-22T04:45:56.153Z,9.53
2017-08-22T04:48:23.730Z,8.73
2017-08-22T04:50:51.294Z,10.57
2017-08-22T04:53:18.864Z,14.00
2017-08-22T04:55:46.431Z,13.00
2017-08-22T04:58:14.916Z,8.63
2017-08-22T05:03:46.705Z,9.87
2017-08-22T05:06:17.212Z,15.00
2017-08-22T05:08:57.659Z,11.43
2017-08-22T05:11:31.004Z,12.50
2017-08-22T05:14:00.113Z,11.77
2017-08-22T05:16:33.815Z,15.20
2017-08-22T05:19:03.959Z,15.63
2017-08-22T05:21:46.377Z,11.93
2017-08-22T05:24:16.437Z,13.50
2017-08-22T05:26:54.091Z,10.70
2017-08-22T05:32:04.174Z,11.67
2017-08-22T05:34:37.035Z,10.07
2017-08-22T05:42:37.828Z,10.30
2017-08-22T05:50:52.692Z,13.17
2017-08-22T05:53:36.132Z,11.43
2017-08-22T05:56:11.817Z,12.37
2017-08-22T05:58:47.033Z,17.23
2017-08-22T06:01:17.532Z,11.20
2017-08-22T06:03:48.569Z,12.60
2017-08-22T06:06:20.346Z,14.27
2017-08-22T06:09:12.977Z,10.73
2017-08-22T06:11:49.781Z,14.63
2017-08-22T06:14:25.614Z,10.33
2017-08-22T06:17:01.583Z,13.33
2017-08-22T06:19:36.548Z,12.83
2017-08-22T06:22:07.025Z,14.77
2017-08-22T06:24:34.621Z,11.93
2017-08-22T06:27:03.474Z,10.50
2017-08-22T06:29:34.193Z,14.00
2017-08-22T06:32:05.240Z,9.20
2017-08-22T06:37:15.773Z,15.93
2017-08-22T06:39:44.675Z,13.87
2017-08-22T06:42:12.223Z,11.20
2017-08-22T06:44:41.063Z,12.53
2017-08-22T06:47:09.474Z,10.60
2017-08-22T06:49:41.499Z,8.40
2017-08-22T06:52:09.066Z,9.00
2017-08-22T06:54:36.718Z,12.70
2017-08-22T06:57:05.160Z,9.80
2017-08-22T06:59:33.504Z,8.60
2017-08-22T07:02:06.847Z,8.80
2017-08-22T07:07:18.130Z,11.83
2017-08-22T07:09:51.281Z,10.13
2017-08-22T07:12:21.851Z,9.43
2017-08-22T07:14:55.405Z,7.77
2017-08-22T07:17:23.025Z,5.73
2017-08-22T07:19:50.587Z,7.50
2017-08-22T07:22:18.130Z,11.90
2017-08-22T07:24:45.749Z,11.03
2017-08-22T07:27:13.294Z,5.67
2017-08-22T07:29:41.847Z,6.73
2017-08-22T07:32:09.402Z,10.07
2017-08-22T07:34:37.013Z,6.10
2017-08-22T07:37:04.624Z,8.23
2017-08-22T07:39:32.891Z,9.77
2017-08-22T07:42:00.483Z,9.97
2017-08-22T07:44:28.055Z,6.77
2017-08-22T07:46:55.619Z,6.83
2017-08-22T07:49:23.221Z,9.23
2017-08-22T07:51:50.777Z,6.17
2017-08-22T07:54:18.428Z,8.90
2017-08-22T07:56:46.022Z,9.80
2017-08-22T07:59:13.580Z,11.63
2017-08-22T08:01:41.146Z,4.67
2017-08-22T08:04:08.735Z,5.63
2017-08-22T08:06:37.100Z,5.80
2017-08-22T08:09:04.687Z,3.83
2017-08-22T08:11:32.248Z,6.00
2017-08-22T08:13:59.802Z,5.63
2017-08-22T08:16:27.384Z,5.70
2017-08-22T08:18:55.310Z,16.00
2017-08-22T08:21:23.780Z,4.60
2017-08-22T08:23:51.351Z,4.10
2017-08-22T08:26:18.927Z,2.23
2017-08-22T08:28:47.419Z,3.60
2017-08-22T08:31:15.048Z,2.70
2017-08-22T08:33:42.627Z,2.20
2017-08-22T08:36:10.465Z,7.43
2017-08-22T08:38:38.026Z,2.30
2017-08-22T08:41:05.846Z,5.13
2017-08-22T08:43:35.259Z,2.10
2017-08-22T08:46:03.282Z,2.50
2017-08-22T08:48:31.390Z,2.57
2017-08-22T08:50:58.955Z,5.77
2017-08-22T08:53:26.517Z,3.93
2017-08-22T08:55:54.287Z,4.03
2017-08-22T08:58:21.866Z,2.57
2017-08-22T09:00:50.336Z,1.20
2017-08-22T09:03:18.830Z,3.17
2017-08-22T09:05:46.406Z,7.27
2017-08-22T09:08:13.998Z,2.93
2017-08-22T09:10:41.555Z,3.00
2017-08-22T09:13:10.098Z,2.47
2017-08-22T09:15:38.157Z,2.47
2017-08-22T09:18:06.295Z,3.13
2017-08-22T09:20:34.492Z,2.47
2017-08-22T09:23:05.418Z,3.33
2017-08-22T09:25:33.929Z,8.00
2017-08-22T09:28:02.071Z,5.13
2017-08-22T09:30:29.659Z,3.57
2017-08-22T09:32:57.310Z,2.23
2017-08-22T09:35:26.595Z,5.40
2017-08-22T09:37:56.535Z,3.60
2017-08-22T09:40:24.089Z,3.20
2017-08-22T09:42:51.661Z,6.70
2017-08-22T09:45:19.193Z,6.67
2017-08-22T09:47:46.742Z,2.97
2017-08-22T09:50:14.320Z,4.60
2017-08-22T09:52:42.662Z,7.10
2017-08-22T09:55:10.302Z,3.10
2017-08-22T09:57:37.838Z,6.30
2017-08-22T10:00:05.413Z,3.37
2017-08-22T10:02:32.983Z,3.27
2017-08-22T10:05:00.622Z,5.47
2017-08-22T10:07:28.159Z,6.20
2017-08-22T10:09:55.712Z,4.30
2017-08-22T10:12:23.290Z,3.40
2017-08-22T10:14:50.890Z,4.77
2017-08-22T10:17:18.618Z,3.00
2017-08-22T10:19:47.083Z,5.37
2017-08-22T10:22:14.665Z,6.50
2017-08-22T10:24:43.179Z,9.10
2017-08-22T10:27:10.714Z,4.30
2017-08-22T10:29:39.485Z,3.00
2017-08-22T10:32:07.017Z,5.00
2017-08-22T10:34:34.610Z,2.40
2017-08-22T10:37:02.155Z,8.13
2017-08-22T10:39:29.712Z,3.87
2017-08-22T10:41:58.187Z,4.30
2017-08-22T10:44:25.725Z,3.80
2017-08-22T10:46:54.219Z,2.40
2017-08-22T10:49:22.051Z,3.93
2017-08-22T10:51:49.617Z,3.53
2017-08-22T10:54:17.244Z,8.20
2017-08-22T10:56:44.810Z,4.77
2017-08-22T10:59:12.365Z,5.50
2017-08-22T11:01:40.891Z,6.27
2017-08-22T11:04:08.435Z,3.53
2017-08-22T11:06:36.859Z,8.40
2017-08-22T11:09:04.434Z,8.57
2017-08-22T11:11:32.026Z,5.77
2017-08-22T11:13:59.569Z,4.73
2017-08-22T11:16:27.398Z,4.87
2017-08-22T11:18:54.957Z,5.80
2017-08-22T11:21:22.564Z,2.90
2017-08-22T11:23:50.159Z,5.10
2017-08-22T11:26:17.702Z,3.87
2017-08-22T11:28:46.992Z,3.50
2017-08-22T11:31:14.583Z,4.80
2017-08-22T11:33:42.165Z,6.80
2017-08-22T11:36:09.804Z,4.13
2017-08-22T11:38:37.363Z,9.13
2017-08-22T11:41:04.999Z,3.30
2017-08-22T11:43:32.585Z,3.33
2017-08-22T11:46:00.163Z,6.77
2017-08-22T11:48:27.724Z,8.03
2017-08-22T11:50:56.055Z,6.67
2017-08-22T11:53:24.408Z,5.47
2017-08-22T11:55:52.757Z,3.20
2017-08-22T11:58:20.345Z,8.67
2017-08-22T12:00:47.884Z,3.93
2017-08-22T12:03:15.854Z,5.27
2017-08-22T12:05:43.413Z,4.90
2017-08-22T12:08:11.243Z,3.43
2017-08-22T12:10:38.831Z,5.43
2017-08-22T12:13:06.922Z,6.70
2017-08-22T12:15:35.480Z,5.60
2017-08-22T12:18:03.091Z,5.77
2017-08-22T12:20:30.676Z,3.83
2017-08-22T12:22:59.076Z,2.73
2017-08-22T12:25:26.665Z,6.77
2017-08-22T12:27:54.245Z,5.60
2017-08-22T12:30:21.789Z,4.03
2017-08-22T12:32:49.358Z,6.30
2017-08-22T12:35:18.882Z,4.50
2017-08-22T12:37:46.419Z,6.30
2017-08-22T12:40:14.000Z,5.20
2017-08-22T12:42:41.936Z,4.23
2017-08-22T12:45:10.296Z,8.17
2017-08-22T12:47:37.871Z,5.47
2017-08-22T12:50:06.311Z,7.93
2017-08-22T12:52:33.882Z,5.40
2017-08-22T12:55:01.418Z,7.03
2017-08-22T12:57:28.998Z,4.90
2017-08-22T12:59:56.578Z,5.07
2017-08-22T13:02:25.360Z,7.80
2017-08-22T13:04:52.910Z,5.70
2017-08-22T13:07:20.505Z,5.97
2017-08-22T13:09:48.189Z,3.40
2017-08-22T13:12:15.740Z,5.20
2017-08-22T13:14:43.329Z,5.00
2017-08-22T13:17:11.204Z,5.03
2017-08-22T13:19:38.743Z,6.70
2017-08-22T13:22:06.337Z,5.07
2017-08-22T13:24:33.903Z,5.47
2017-08-22T13:27:02.046Z,7.50
2017-08-22T13:29:29.586Z,7.43
2017-08-22T13:31:57.147Z,5.67
2017-08-22T13:34:24.674Z,4.63
2017-08-22T13:36:52.254Z,5.47
2017-08-22T13:39:19.786Z,7.30
2017-08-22T13:41:47.350Z,9.57
2017-08-22T13:44:14.946Z,7.43
2017-08-22T13:46:43.323Z,7.23
2017-08-22T13:49:10.889Z,9.13
2017-08-22T13:51:38.447Z,6.80
2017-08-22T13:54:06.046Z,5.10
2017-08-22T13:56:34.475Z,6.53
2017-08-22T13:59:02.018Z,5.17
2017-08-22T14:01:29.597Z,4.90
2017-08-22T14:03:57.223Z,5.70
2017-08-22T14:06:24.754Z,3.30
2017-08-22T14:08:53.263Z,5.83
2017-08-22T14:11:21.798Z,5.30
2017-08-22T14:13:52.774Z,5.13
2017-08-22T14:16:20.320Z,4.20
2017-08-22T14:18:47.911Z,7.53
2017-08-22T14:21:15.457Z,7.10
2017-08-22T14:23:43.936Z,8.80
2017-08-22T14:26:11.580Z,7.63
2017-08-22T14:28:39.135Z,4.03
2017-08-22T14:31:06.694Z,11.53
2017-08-22T14:33:34.867Z,4.70
2017-08-22T14:36:02.436Z,10.60
2017-08-22T14:38:30.020Z,11.73
2017-08-22T14:40:58.935Z,8.03
2017-08-22T14:43:27.596Z,5.87
2017-08-22T14:45:57.326Z,9.63
2017-08-22T14:48:25.550Z,5.67
2017-08-22T14:50:56.386Z,6.33
2017-08-22T14:53:28.239Z,5.77
2017-08-22T14:55:58.086Z,7.17
2017-08-22T14:58:25.634Z,9.53
2017-08-22T15:00:55.177Z,4.57
2017-08-22T15:03:25.221Z,5.47
2017-08-22T15:05:53.954Z,4.43
2017-08-22T15:08:21.783Z,5.13
2017-08-22T15:10:50.252Z,7.27
2017-08-22T15:13:19.931Z,4.33
2017-08-22T15:15:47.515Z,3.87
2017-08-22T15:18:15.110Z,6.40
2017-08-22T15:20:42.653Z,9.77
2017-08-22T15:23:11.124Z,6.73
2017-08-22T15:25:38.919Z,6.87
2017-08-22T15:28:06.458Z,7.13
2017-08-22T15:30:34.043Z,7.67
2017-08-22T15:33:01.590Z,6.33
2017-08-22T15:35:29.157Z,6.50
2017-08-22T15:37:59.280Z,7.80
2017-08-22T15:40:26.813Z,5.73
2017-08-22T15:42:54.665Z,6.10
2017-08-22T15:45:22.268Z,5.60
2017-08-22T15:47:52.041Z,8.53
2017-08-22T15:50:19.603Z,8.40
2017-08-22T15:52:47.141Z,6.27
2017-08-22T15:55:14.709Z,9.80
2017-08-22T15:57:42.638Z,4.50
2017-08-22T16:00:10.207Z,5.33
2017-08-22T16:02:38.561Z,4.97
2017-08-22T16:05:06.140Z,5.13
2017-08-22T16:07:33.707Z,7.53
2017-08-22T16:10:01.236Z,4.47
2017-08-22T16:12:29.250Z,8.13
2017-08-22T16:14:56.781Z,7.80
2017-08-22T16:17:24.365Z,5.30
2017-08-22T16:19:51.893Z,6.03
2017-08-22T16:22:19.434Z,5.30
2017-08-22T16:24:47.038Z,8.43
2017-08-22T16:27:15.339Z,7.70
2017-08-22T16:29:42.946Z,5.30
2017-08-22T16:32:10.518Z,7.73
2017-08-22T16:34:38.874Z,10.70
2017-08-22T16:37:06.484Z,5.03
2017-08-22T16:39:34.031Z,6.73
2017-08-22T16:42:03.085Z,4.43
2017-08-22T16:44:30.655Z,6.07
2017-08-22T16:47:00.126Z,5.00
2017-08-22T16:49:27.660Z,3.47
2017-08-22T16:51:57.347Z,4.23
2017-08-22T16:54:25.783Z,6.23
2017-08-22T16:56:53.362Z,10.77
2017-08-22T16:59:23.385Z,4.40
2017-08-22T17:01:51.812Z,7.40
2017-08-22T17:04:20.354Z,8.57
2017-08-22T17:06:47.895Z,5.27
2017-08-22T17:09:16.144Z,5.03
2017-08-22T17:11:43.962Z,6.17
2017-08-22T17:14:11.522Z,7.13
2017-08-22T17:16:39.117Z,6.00
2017-08-22T17:19:06.674Z,9.03
2017-08-22T17:21:34.237Z,11.50
2017-08-22T17:24:01.845Z,7.63
2017-08-22T17:26:29.865Z,13.50
2017-08-22T17:28:57.703Z,5.87
2017-08-22T17:31:25.242Z,6.60
2017-08-22T17:33:52.799Z,3.57
2017-08-22T17:36:21.102Z,4.40
2017-08-22T17:38:48.802Z,5.57
2017-08-22T17:41:16.465Z,4.30
2017-08-22T17:43:44.005Z,7.90
2017-08-22T17:46:11.579Z,3.93
2017-08-22T17:48:39.135Z,5.30
2017-08-22T17:51:07.561Z,6.40
2017-08-22T17:53:36.614Z,6.07
2017-08-22T17:56:04.194Z,4.83
2017-08-22T17:58:31.881Z,5.40
2017-08-22T18:00:59.518Z,4.20
2017-08-22T18:03:27.090Z,4.57
2017-08-22T18:05:55.618Z,4.60
2017-08-22T18:08:23.262Z,8.90
2017-08-22T18:10:51.431Z,4.40
2017-08-22T18:13:19.572Z,6.80
2017-08-22T18:15:47.150Z,4.60
2017-08-22T18:18:14.719Z,9.97
2017-08-22T18:20:44.194Z,4.50
2017-08-22T18:23:14.555Z,5.00
2017-08-22T18:25:43.718Z,7.10
2017-08-22T18:28:11.253Z,7.67
2017-08-22T18:30:38.827Z,3.23
2017-08-22T18:33:07.133Z,5.80
2017-08-22T18:35:35.331Z,10.57
2017-08-22T18:38:03.057Z,3.90
2017-08-22T18:40:30.614Z,7.97
2017-08-22T18:42:58.186Z,6.60
2017-08-22T18:45:25.724Z,4.90
2017-08-22T18:47:53.590Z,5.27
2017-08-22T18:50:21.171Z,3.80
2017-08-22T18:52:48.706Z,4.60
2017-08-22T18:55:16.266Z,11.10
2017-08-22T18:57:43.839Z,7.93
2017-08-22T19:00:11.385Z,5.20
2017-08-22T19:02:38.967Z,6.70
2017-08-22T19:05:06.549Z,4.27
2017-08-22T19:07:34.076Z,6.37
2017-08-22T19:10:01.637Z,7.63
2017-08-22T19:12:29.190Z,8.73
2017-08-22T19:17:29.946Z,7.03
2017-08-22T19:19:57.530Z,9.70
2017-08-22T19:22:25.103Z,4.60
2017-08-22T19:24:52.680Z,8.00
2017-08-22T19:27:20.258Z,5.00
2017-08-22T19:29:48.402Z,6.10
2017-08-22T19:32:41.945Z,8.70
2017-08-22T19:35:10.695Z,8.23
2017-08-22T19:37:40.282Z,4.70
2017-08-22T19:40:07.891Z,27.20
2017-08-22T19:42:35.479Z,20.10
2017-08-22T19:45:03.043Z,19.63
2017-08-22T19:47:31.325Z,18.37
2017-08-22T19:49:58.874Z,19.93
2017-08-22T19:52:26.468Z,34.17
2017-08-22T19:54:54.221Z,12.47
2017-08-22T19:57:21.816Z,11.33
2017-08-22T19:59:49.666Z,18.70
2017-08-22T20:02:17.643Z,20.03
2017-08-22T20:04:45.435Z,13.13
2017-08-22T20:07:13.019Z,12.40
2017-08-22T20:09:40.569Z,8.97
2017-08-22T20:12:08.965Z,11.90
2017-08-22T20:14:36.502Z,9.80
2017-08-22T20:17:04.105Z,12.60
2017-08-22T20:19:31.676Z,10.47
2017-08-22T20:21:59.919Z,7.03
2017-08-22T20:24:27.478Z,9.50
2017-08-22T20:26:55.185Z,6.90
2017-08-22T20:29:23.191Z,10.53
2017-08-22T20:31:50.738Z,8.67
2017-08-22T20:34:25.231Z,9.30
2017-08-22T20:36:52.814Z,6.73
2017-08-22T20:39:24.605Z,7.60
2017-08-22T20:41:52.185Z,12.57
2017-08-22T20:44:20.336Z,7.30
2017-08-22T20:46:53.275Z,7.77
2017-08-22T20:51:56.804Z,9.70
2017-08-22T20:54:25.315Z,9.40
2017-08-22T20:56:55.522Z,7.33
2017-08-22T20:59:24.069Z,8.23
2017-08-22T21:01:54.753Z,8.10
2017-08-22T21:04:27.455Z,6.70
2017-08-22T21:06:57.373Z,9.03
2017-08-22T21:09:29.398Z,8.00
2017-08-22T21:11:58.074Z,8.27
2017-08-22T21:14:28.851Z,5.20
2017-08-22T21:16:57.737Z,7.90
2017-08-22T21:19:33.375Z,6.50
2017-08-22T21:22:04.898Z,9.80
2017-08-22T21:24:32.641Z,10.03
2017-08-22T21:27:00.249Z,10.20
2017-08-22T21:29:27.781Z,8.90
2017-08-22T21:31:55.434Z,9.20
2017-08-22T21:34:24.818Z,8.23
2017-08-22T21:36:53.139Z,8.30
2017-08-22T21:39:23.033Z,6.60
2017-08-22T21:41:52.986Z,7.77
2017-08-22T21:44:25.158Z,11.13
2017-08-22T21:46:55.122Z,8.03
2017-08-22T21:49:35.141Z,10.00
2017-08-22T21:52:06.581Z,8.30
2017-08-22T21:54:38.381Z,11.17
2017-08-22T21:57:07.218Z,15.90
2017-08-22T21:59:35.521Z,9.87
2017-08-22T22:02:03.106Z,7.80
2017-08-22T22:04:35.947Z,11.07
2017-08-22T22:07:10.922Z,10.80
2017-08-22T22:09:39.374Z,7.47
2017-08-22T22:12:06.943Z,9.63
2017-08-22T22:14:34.474Z,12.27
2017-08-22T22:17:02.043Z,11.13
2017-08-22T22:19:29.623Z,7.83
2017-08-22T22:22:08.323Z,10.17
2017-08-22T22:24:35.921Z,10.10
2017-08-22T22:27:03.499Z,9.20
2017-08-22T22:29:31.057Z,13.63
2017-08-22T22:31:58.630Z,6.57
2017-08-22T22:34:26.167Z,8.27
2017-08-22T22:36:54.574Z,11.03
2017-08-22T22:39:22.924Z,8.40
2017-08-22T22:41:50.473Z,7.80
2017-08-22T22:44:18.802Z,8.00
2017-08-22T22:46:46.643Z,10.57
2017-08-22T22:49:15.134Z,15.27
2017-08-22T22:51:43.595Z,9.33
2017-08-22T22:54:11.161Z,13.60
2017-08-22T22:56:38.738Z,9.03
2017-08-22T22:59:06.269Z,10.57
2017-08-22T23:01:33.853Z,11.23
2017-08-22T23:04:02.230Z,9.93
2017-08-22T23:06:29.766Z,10.30
2017-08-22T23:08:57.336Z,10.83
2017-08-22T23:11:27.014Z,12.03
2017-08-22T23:13:54.613Z,9.30
2017-08-22T23:16:23.137Z,12.00
2017-08-22T23:18:51.101Z,8.40
2017-08-22T23:21:19.609Z,11.87
2017-08-22T23:23:53.134Z,10.03
2017-08-22T23:26:20.699Z,10.90
2017-08-22T23:28:48.269Z,10.40
2017-08-22T23:31:15.800Z,10.57
2017-08-22T23:33:44.140Z,9.97
2017-08-22T23:36:12.526Z,12.97
2017-08-22T23:38:40.067Z,10.13
2017-08-22T23:41:07.637Z,9.10
2017-08-22T23:43:35.174Z,12.03
2017-08-22T23:46:04.669Z,11.37
2017-08-22T23:48:32.255Z,8.80
2017-08-22T23:50:59.797Z,10.27
2017-08-22T23:53:27.345Z,11.13
2017-08-22T23:55:58.474Z,9.20
2017-08-22T23:58:27.610Z,14.67
